createdAt,value
2023-07-01T00:01:45.629Z,81.90
2023-07-01T00:03:48.714Z,82.09
2023-07-01T00:05:51.732Z,82.03
2023-07-01T00:07:54.264Z,82.45
2023-07-01T00:09:56.394Z,82.57
2023-07-01T00:11:58.747Z,82.37
2023-07-01T00:14:00.960Z,82.37
2023-07-01T00:16:03.415Z,82.27
2023-07-01T00:18:05.557Z,82.22
2023-07-01T00:20:08.611Z,82.43
2023-07-01T00:22:10.963Z,82.59
2023-07-01T00:24:13.486Z,82.62
2023-07-01T00:26:15.680Z,82.37
2023-07-01T00:28:18.192Z,82.81
2023-07-01T00:30:20.331Z,82.76
2023-07-01T00:32:22.834Z,83.02
2023-07-01T00:34:25.036Z,83.60
2023-07-01T00:36:27.682Z,83.55
2023-07-01T00:38:29.791Z,83.62
2023-07-01T00:40:32.368Z,83.86
2023-07-01T00:42:34.465Z,83.88
2023-07-01T00:44:36.929Z,83.78
2023-07-01T00:46:39.166Z,83.51
2023-07-01T00:48:41.985Z,83.45
2023-07-01T00:50:44.045Z,84.13
2023-07-01T00:52:47.939Z,84.26
2023-07-01T00:54:50.294Z,84.83
2023-07-01T00:56:52.919Z,84.57
2023-07-01T00:58:55.273Z,84.60
2023-07-01T01:01:00.292Z,84.74
2023-07-01T01:03:17.386Z,85.04
2023-07-01T01:05:33.546Z,85.41
2023-07-01T01:07:49.791Z,85.38
2023-07-01T01:10:03.579Z,85.98
2023-07-01T01:12:11.191Z,86.23
2023-07-01T01:14:16.506Z,86.51
2023-07-01T01:16:19.252Z,86.61
2023-07-01T01:18:24.535Z,86.55
2023-07-01T01:20:31.010Z,87.03
2023-07-01T01:22:54.729Z,87.28
2023-07-01T01:24:59.997Z,87.87
2023-07-01T01:27:05.269Z,87.75
2023-07-01T01:29:07.732Z,87.69
2023-07-01T01:31:10.294Z,87.65
2023-07-01T01:33:12.519Z,87.41
2023-07-01T01:35:15.009Z,87.55
2023-07-01T01:38:00.156Z,87.64
2023-07-01T01:40:14.922Z,88.14
2023-07-01T01:42:29.981Z,88.24
2023-07-01T01:44:45.823Z,88.16
2023-07-01T01:46:48.690Z,87.84
2023-07-01T01:48:53.784Z,87.84
2023-07-01T01:50:57.617Z,88.07
2023-07-01T01:53:00.901Z,88.18
2023-07-01T01:55:05.448Z,88.17
2023-07-01T01:57:08.238Z,88.47
2023-07-01T01:59:12.267Z,88.65
2023-07-01T02:01:16.172Z,88.13
2023-07-01T02:03:18.387Z,88.56
2023-07-01T02:05:21.081Z,88.48
2023-07-01T02:07:23.257Z,88.30
2023-07-01T02:09:25.648Z,88.68
2023-07-01T02:11:27.819Z,88.84
2023-07-01T02:13:30.628Z,88.78
2023-07-01T02:15:33.325Z,88.85
2023-07-01T02:17:35.946Z,88.60
2023-07-01T02:19:38.157Z,88.51
2023-07-01T02:21:40.830Z,88.15
2023-07-01T02:23:43.038Z,88.10
2023-07-01T02:25:45.575Z,88.36
2023-07-01T02:27:47.768Z,88.33
2023-07-01T02:29:51.405Z,88.14
2023-07-01T02:31:53.778Z,88.65
2023-07-01T02:34:00.850Z,88.45
2023-07-01T02:36:04.056Z,88.65
2023-07-01T02:38:09.235Z,88.78
2023-07-01T02:40:11.940Z,88.64
2023-07-01T02:42:17.720Z,89.19
2023-07-01T02:44:19.939Z,89.11
2023-07-01T02:46:22.532Z,89.00
2023-07-01T02:48:25.328Z,89.26
2023-07-01T02:50:27.840Z,89.58
2023-07-01T02:52:30.190Z,89.85
2023-07-01T02:54:32.858Z,89.74
2023-07-01T02:56:35.103Z,89.84
2023-07-01T02:58:37.715Z,89.51
2023-07-01T03:00:39.893Z,89.68
2023-07-01T03:02:42.650Z,89.86
2023-07-01T03:04:44.947Z,89.61
2023-07-01T03:06:47.560Z,89.65
2023-07-01T03:08:49.830Z,89.70
2023-07-01T03:10:52.371Z,89.55
2023-07-01T03:12:55.387Z,89.84
2023-07-01T03:14:57.978Z,89.78
2023-07-01T03:17:00.480Z,90.11
2023-07-01T03:19:03.059Z,89.92
2023-07-01T03:21:05.319Z,90.12
2023-07-01T03:23:07.935Z,89.93
2023-07-01T03:25:10.199Z,90.20
2023-07-01T03:27:12.730Z,90.34
2023-07-01T03:29:14.893Z,90.42
2023-07-01T03:31:17.606Z,90.37
2023-07-01T03:33:19.725Z,90.24
2023-07-01T03:35:22.360Z,90.46
2023-07-01T03:37:24.533Z,90.54
2023-07-01T03:39:26.987Z,91.11
2023-07-01T03:41:29.206Z,90.61
2023-07-01T03:43:31.931Z,90.81
2023-07-01T03:45:34.147Z,90.72
2023-07-01T03:47:41.306Z,90.95
2023-07-01T03:49:43.623Z,90.78
2023-07-01T03:51:46.102Z,90.73
2023-07-01T03:53:48.351Z,90.83
2023-07-01T03:55:50.906Z,90.98
2023-07-01T03:57:53.110Z,90.75
2023-07-01T03:59:55.805Z,90.84
2023-07-01T04:01:58.050Z,90.50
2023-07-01T04:04:00.578Z,90.69
2023-07-01T04:06:02.961Z,90.89
2023-07-01T04:08:05.534Z,90.98
2023-07-01T04:10:09.359Z,91.15
2023-07-01T04:12:12.061Z,90.98
2023-07-01T04:14:14.304Z,90.73
2023-07-01T04:16:16.907Z,90.80
2023-07-01T04:18:19.119Z,90.72
2023-07-01T04:20:21.988Z,90.73
2023-07-01T04:22:24.603Z,90.53
2023-07-01T04:24:27.054Z,91.02
2023-07-01T04:26:29.183Z,90.68
2023-07-01T04:28:31.808Z,90.72
2023-07-01T04:30:34.320Z,90.66
2023-07-01T04:32:37.655Z,90.91
2023-07-01T04:34:40.011Z,90.70
2023-07-01T04:36:42.731Z,90.35
2023-07-01T04:38:44.964Z,90.13
2023-07-01T04:40:49.128Z,90.25
2023-07-01T04:42:53.394Z,89.46
2023-07-01T04:44:56.186Z,89.42
2023-07-01T04:46:58.572Z,89.67
2023-07-01T04:49:01.118Z,89.75
2023-07-01T04:51:03.329Z,89.61
2023-07-01T04:53:06.024Z,89.48
2023-07-01T04:55:08.899Z,89.28
2023-07-01T04:57:11.400Z,89.28
2023-07-01T04:59:13.713Z,89.29
2023-07-01T05:01:16.395Z,89.08
2023-07-01T05:03:18.749Z,89.38
2023-07-01T05:05:21.717Z,89.26
2023-07-01T05:07:24.067Z,89.43
2023-07-01T05:09:26.642Z,89.03
2023-07-01T05:11:31.052Z,88.93
2023-07-01T05:13:38.469Z,89.05
2023-07-01T05:15:40.645Z,88.28
2023-07-01T05:17:44.744Z,88.61
2023-07-01T05:19:46.995Z,88.78
2023-07-01T05:21:54.785Z,88.13
2023-07-01T05:23:57.157Z,87.83
2023-07-01T05:26:00.126Z,88.16
2023-07-01T05:28:02.342Z,88.29
2023-07-01T05:30:06.613Z,88.25
2023-07-01T05:32:11.263Z,88.24
2023-07-01T05:34:13.866Z,87.77
2023-07-01T05:36:16.166Z,88.05
2023-07-01T05:38:18.992Z,87.56
2023-07-01T05:40:21.401Z,87.10
2023-07-01T05:42:24.176Z,87.37
2023-07-01T05:44:26.394Z,87.09
2023-07-01T05:46:29.128Z,86.65
2023-07-01T05:48:31.405Z,86.67
2023-07-01T05:50:33.931Z,87.16
2023-07-01T05:52:36.286Z,87.36
2023-07-01T05:54:39.049Z,87.35
2023-07-01T05:56:41.197Z,87.01
2023-07-01T05:58:44.014Z,87.12
2023-07-01T06:00:46.552Z,86.72
2023-07-01T06:02:49.437Z,87.08
2023-07-01T06:04:51.971Z,86.51
2023-07-01T06:06:54.529Z,86.21
2023-07-01T06:08:56.812Z,86.11
2023-07-01T06:10:59.330Z,85.64
2023-07-01T06:13:01.613Z,85.25
2023-07-01T06:15:04.649Z,85.56
2023-07-01T06:17:07.578Z,85.67
2023-07-01T06:19:10.267Z,85.59
2023-07-01T06:21:12.452Z,85.16
2023-07-01T06:23:17.787Z,84.96
2023-07-01T06:25:20.077Z,84.73
2023-07-01T06:27:22.673Z,84.27
2023-07-01T06:29:24.814Z,84.01
2023-07-01T06:31:27.412Z,84.05
2023-07-01T06:33:29.623Z,83.99
2023-07-01T06:35:32.178Z,83.83
2023-07-01T06:37:34.376Z,83.33
2023-07-01T06:39:38.847Z,83.21
2023-07-01T06:41:41.577Z,82.86
2023-07-01T06:43:44.480Z,82.88
2023-07-01T06:45:46.773Z,83.31
2023-07-01T06:47:50.293Z,83.30
2023-07-01T06:49:52.637Z,82.38
2023-07-01T06:51:55.322Z,82.08
2023-07-01T06:53:57.681Z,81.70
2023-07-01T06:56:02.579Z,81.55
2023-07-01T06:58:06.011Z,81.64
2023-07-01T07:00:11.751Z,81.38
2023-07-01T07:02:14.279Z,81.45
2023-07-01T07:04:16.851Z,81.39
2023-07-01T07:06:19.497Z,81.73
2023-07-01T07:08:22.732Z,81.32
2023-07-01T07:10:25.088Z,81.18
2023-07-01T07:12:28.216Z,81.46
2023-07-01T07:14:33.586Z,81.13
2023-07-01T07:16:36.558Z,81.07
2023-07-01T07:18:39.110Z,80.91
2023-07-01T07:20:48.637Z,81.15
2023-07-01T07:22:52.421Z,81.29
2023-07-01T07:24:58.801Z,80.99
2023-07-01T07:27:03.191Z,81.08
2023-07-01T07:29:06.147Z,80.81
2023-07-01T07:31:08.517Z,80.64
2023-07-01T07:33:11.250Z,80.64
2023-07-01T07:35:13.722Z,80.49
2023-07-01T07:37:16.660Z,80.10
2023-07-01T07:39:19.559Z,80.21
2023-07-01T07:41:22.658Z,80.07
2023-07-01T07:43:27.404Z,80.22
2023-07-01T07:45:30.332Z,80.05
2023-07-01T07:47:32.916Z,79.86
2023-07-01T07:49:36.088Z,79.43
2023-07-01T07:51:38.352Z,79.53
2023-07-01T07:53:41.061Z,79.42
2023-07-01T07:55:43.650Z,79.40
2023-07-01T07:57:46.552Z,79.02
2023-07-01T07:59:54.596Z,78.57
2023-07-01T08:01:57.395Z,78.65
2023-07-01T08:04:01.712Z,78.92
2023-07-01T08:06:04.680Z,78.28
2023-07-01T08:08:07.080Z,78.43
2023-07-01T08:10:10.457Z,77.82
2023-07-01T08:12:13.076Z,77.50
2023-07-01T08:14:21.866Z,77.58
2023-07-01T08:16:24.637Z,77.57
2023-07-01T08:18:27.301Z,77.70
2023-07-01T08:20:29.782Z,77.25
2023-07-01T08:22:39.086Z,77.28
2023-07-01T08:24:44.059Z,77.00
2023-07-01T08:26:46.865Z,76.96
2023-07-01T08:28:49.121Z,77.13
2023-07-01T08:30:57.229Z,77.39
2023-07-01T08:32:59.941Z,77.33
2023-07-01T08:35:02.596Z,77.02
2023-07-01T08:41:12.176Z,76.97
2023-07-01T08:43:48.530Z,76.75
2023-07-01T08:45:52.901Z,77.21
2023-07-01T08:48:16.449Z,77.44
2023-07-01T08:50:21.599Z,77.48
2023-07-01T08:52:30.635Z,77.12
2023-07-01T08:54:38.298Z,76.63
2023-07-01T08:56:49.416Z,76.42
2023-07-01T08:58:58.525Z,76.22
2023-07-01T09:01:09.247Z,76.35
2023-07-01T09:06:55.117Z,75.84
2023-07-01T09:08:59.412Z,75.72
2023-07-01T09:13:25.685Z,75.16
2023-07-01T09:15:08.876Z,75.31
2023-07-01T09:16:36.221Z,75.40
2023-07-01T09:17:48.734Z,75.49
2023-07-01T09:19:07.488Z,75.64
2023-07-01T09:20:13.757Z,75.06
2023-07-01T09:21:21.170Z,74.94
2023-07-01T09:22:59.731Z,74.32
2023-07-01T09:24:02.341Z,74.40
2023-07-01T09:25:04.759Z,74.40
2023-07-01T09:26:09.240Z,74.38
2023-07-01T09:27:11.174Z,74.37
